sensor_id;sensor_type;location;lat;lon;timestamp;pressure;altitude;pressure_sealevel;temperature;humidity
51528;BME280;37612;51.768;21.590;2022-11-30T00:03:21;101163.84;;;0.26;92.65
51528;BME280;37612;51.768;21.590;2022-11-30T00:07:22;101168.06;;;0.29;92.64
51528;BME280;37612;51.768;21.590;2022-11-30T00:11:25;101167.60;;;0.28;92.67
51528;BME280;37612;51.768;21.590;2022-11-30T00:15:26;101163.59;;;0.27;92.73
51528;BME280;37612;51.768;21.590;2022-11-30T00:19:27;101165.52;;;0.23;92.75
51528;BME280;37612;51.768;21.590;2022-11-30T00:23:33;101166.79;;;0.19;92.54
51528;BME280;37612;51.768;21.590;2022-11-30T00:27:34;101171.77;;;0.22;92.78
51528;BME280;37612;51.768;21.590;2022-11-30T00:31:35;101171.02;;;0.26;92.72
51528;BME280;37612;51.768;21.590;2022-11-30T00:35:37;101169.47;;;0.27;92.84
51528;BME280;37612;51.768;21.590;2022-11-30T00:39:38;101168.27;;;0.27;92.79
51528;BME280;37612;51.768;21.590;2022-11-30T00:43:39;101168.04;;;0.26;92.81
51528;BME280;37612;51.768;21.590;2022-11-30T00:47:40;101169.11;;;0.28;92.74
51528;BME280;37612;51.768;21.590;2022-11-30T00:51:42;101169.53;;;0.28;92.82
51528;BME280;37612;51.768;21.590;2022-11-30T00:55:43;101168.25;;;0.26;92.67
51528;BME280;37612;51.768;21.590;2022-11-30T00:59:44;101168.40;;;0.20;92.65
51528;BME280;37612;51.768;21.590;2022-11-30T01:03:46;101168.64;;;0.22;92.75
51528;BME280;37612;51.768;21.590;2022-11-30T01:07:47;101164.15;;;0.26;92.69
51528;BME280;37612;51.768;21.590;2022-11-30T01:11:49;101166.73;;;0.28;92.78
51528;BME280;37612;51.768;21.590;2022-11-30T01:15:50;101173.11;;;0.28;92.79
51528;BME280;37612;51.768;21.590;2022-11-30T01:19:51;101171.31;;;0.25;92.59
51528;BME280;37612;51.768;21.590;2022-11-30T01:23:54;101173.48;;;0.24;92.61
51528;BME280;37612;51.768;21.590;2022-11-30T01:27:55;101175.66;;;0.27;92.68
51528;BME280;37612;51.768;21.590;2022-11-30T01:31:56;101178.02;;;0.24;92.81
51528;BME280;37612;51.768;21.590;2022-11-30T01:36:05;101178.95;;;0.22;92.91
51528;BME280;37612;51.768;21.590;2022-11-30T01:40:07;101175.46;;;0.25;92.88
51528;BME280;37612;51.768;21.590;2022-11-30T01:48:16;101176.63;;;0.24;92.80
51528;BME280;37612;51.768;21.590;2022-11-30T01:52:18;101177.02;;;0.22;93.09
51528;BME280;37612;51.768;21.590;2022-11-30T01:56:20;101174.84;;;0.22;93.07
51528;BME280;37612;51.768;21.590;2022-11-30T02:00:22;101176.86;;;0.24;93.18
51528;BME280;37612;51.768;21.590;2022-11-30T02:04:31;101175.48;;;0.21;93.08
51528;BME280;37612;51.768;21.590;2022-11-30T02:08:33;101178.61;;;0.24;92.97
51528;BME280;37612;51.768;21.590;2022-11-30T02:17:52;101179.27;;;0.26;92.77
51528;BME280;37612;51.768;21.590;2022-11-30T02:22:06;101178.27;;;0.23;93.11
51528;BME280;37612;51.768;21.590;2022-11-30T02:30:29;101183.61;;;0.26;93.05
51528;BME280;37612;51.768;21.590;2022-11-30T02:34:34;101187.81;;;0.26;92.80
51528;BME280;37612;51.768;21.590;2022-11-30T02:38:37;101195.33;;;0.26;93.04
51528;BME280;37612;51.768;21.590;2022-11-30T02:42:38;101193.16;;;0.27;93.27
51528;BME280;37612;51.768;21.590;2022-11-30T02:50:59;101190.61;;;0.29;93.22
51528;BME280;37612;51.768;21.590;2022-11-30T02:55:05;101187.69;;;0.32;93.24
51528;BME280;37612;51.768;21.590;2022-11-30T02:59:08;101191.96;;;0.33;93.28
51528;BME280;37612;51.768;21.590;2022-11-30T03:03:09;101193.65;;;0.30;93.37
51528;BME280;37612;51.768;21.590;2022-11-30T03:07:10;101194.77;;;0.26;93.38
51528;BME280;37612;51.768;21.590;2022-11-30T03:11:11;101198.70;;;0.26;93.58
51528;BME280;37612;51.768;21.590;2022-11-30T03:15:12;101201.61;;;0.28;93.56
51528;BME280;37612;51.768;21.590;2022-11-30T03:19:13;101207.80;;;0.31;93.45
51528;BME280;37612;51.768;21.590;2022-11-30T03:23:14;101212.86;;;0.31;93.48
51528;BME280;37612;51.768;21.590;2022-11-30T03:27:15;101217.08;;;0.31;93.52
51528;BME280;37612;51.768;21.590;2022-11-30T03:31:17;101216.93;;;0.27;93.65
51528;BME280;37612;51.768;21.590;2022-11-30T03:35:19;101221.23;;;0.30;93.69
51528;BME280;37612;51.768;21.590;2022-11-30T03:39:20;101223.39;;;0.34;93.53
51528;BME280;37612;51.768;21.590;2022-11-30T03:43:22;101228.74;;;0.33;93.66
51528;BME280;37612;51.768;21.590;2022-11-30T03:47:23;101231.20;;;0.33;93.69
51528;BME280;37612;51.768;21.590;2022-11-30T03:51:24;101234.84;;;0.32;93.84
51528;BME280;37612;51.768;21.590;2022-11-30T03:55:25;101234.20;;;0.31;93.68
51528;BME280;37612;51.768;21.590;2022-11-30T03:59:26;101229.86;;;0.34;93.71
51528;BME280;37612;51.768;21.590;2022-11-30T04:03:28;101231.02;;;0.37;93.70
51528;BME280;37612;51.768;21.590;2022-11-30T04:07:29;101228.27;;;0.36;93.74
51528;BME280;37612;51.768;21.590;2022-11-30T04:11:30;101229.48;;;0.33;93.82
51528;BME280;37612;51.768;21.590;2022-11-30T04:15:31;101229.88;;;0.32;93.85
51528;BME280;37612;51.768;21.590;2022-11-30T04:19:32;101228.64;;;0.38;93.87
51528;BME280;37612;51.768;21.590;2022-11-30T04:23:36;101230.77;;;0.39;93.72
51528;BME280;37612;51.768;21.590;2022-11-30T04:27:37;101229.73;;;0.36;93.83
51528;BME280;37612;51.768;21.590;2022-11-30T04:31:39;101236.06;;;0.34;94.06
51528;BME280;37612;51.768;21.590;2022-11-30T04:35:54;101232.14;;;0.31;93.96
51528;BME280;37612;51.768;21.590;2022-11-30T04:39:55;101234.42;;;0.31;94.02
51528;BME280;37612;51.768;21.590;2022-11-30T04:43:56;101233.67;;;0.35;94.14
51528;BME280;37612;51.768;21.590;2022-11-30T04:47:57;101236.31;;;0.36;94.06
51528;BME280;37612;51.768;21.590;2022-11-30T04:51:59;101240.12;;;0.37;94.10
51528;BME280;37612;51.768;21.590;2022-11-30T04:56:05;101243.11;;;0.32;94.09
51528;BME280;37612;51.768;21.590;2022-11-30T05:00:07;101242.51;;;0.27;94.18
51528;BME280;37612;51.768;21.590;2022-11-30T05:04:08;101247.92;;;0.31;94.09
51528;BME280;37612;51.768;21.590;2022-11-30T05:08:09;101247.70;;;0.35;94.05
51528;BME280;37612;51.768;21.590;2022-11-30T05:12:11;101252.02;;;0.34;94.27
51528;BME280;37612;51.768;21.590;2022-11-30T05:16:12;101256.38;;;0.30;94.04
51528;BME280;37612;51.768;21.590;2022-11-30T05:20:13;101255.48;;;0.27;94.14
51528;BME280;37612;51.768;21.590;2022-11-30T05:24:14;101260.40;;;0.28;93.96
51528;BME280;37612;51.768;21.590;2022-11-30T05:28:15;101258.64;;;0.29;94.08
51528;BME280;37612;51.768;21.590;2022-11-30T05:32:17;101260.82;;;0.26;93.93
51528;BME280;37612;51.768;21.590;2022-11-30T05:36:18;101258.26;;;0.22;93.93
51528;BME280;37612;51.768;21.590;2022-11-30T05:40:19;101261.27;;;0.23;93.78
51528;BME280;37612;51.768;21.590;2022-11-30T05:44:21;101264.25;;;0.29;94.04
51528;BME280;37612;51.768;21.590;2022-11-30T05:48:22;101264.34;;;0.30;94.02
51528;BME280;37612;51.768;21.590;2022-11-30T05:52:23;101269.98;;;0.25;93.76
51528;BME280;37612;51.768;21.590;2022-11-30T05:56:24;101273.52;;;0.24;93.89
51528;BME280;37612;51.768;21.590;2022-11-30T06:00:25;101279.09;;;0.24;93.76
51528;BME280;37612;51.768;21.590;2022-11-30T06:04:26;101281.24;;;0.19;93.94
51528;BME280;37612;51.768;21.590;2022-11-30T06:08:28;101283.91;;;0.17;93.91
51528;BME280;37612;51.768;21.590;2022-11-30T06:12:29;101287.05;;;0.21;93.89
51528;BME280;37612;51.768;21.590;2022-11-30T06:16:30;101289.78;;;0.24;93.96
51528;BME280;37612;51.768;21.590;2022-11-30T06:20:31;101291.26;;;0.23;93.82
51528;BME280;37612;51.768;21.590;2022-11-30T06:24:33;101296.84;;;0.21;93.85
51528;BME280;37612;51.768;21.590;2022-11-30T06:28:34;101300.50;;;0.25;94.08
51528;BME280;37612;51.768;21.590;2022-11-30T06:32:36;101302.02;;;0.26;93.89
51528;BME280;37612;51.768;21.590;2022-11-30T06:36:37;101303.18;;;0.20;94.00
51528;BME280;37612;51.768;21.590;2022-11-30T06:40:40;101307.90;;;0.15;94.03
51528;BME280;37612;51.768;21.590;2022-11-30T06:44:45;101307.23;;;0.14;93.94
51528;BME280;37612;51.768;21.590;2022-11-30T06:48:52;101305.80;;;0.10;93.97
51528;BME280;37612;51.768;21.590;2022-11-30T06:57:06;101318.77;;;0.12;94.23
51528;BME280;37612;51.768;21.590;2022-11-30T07:01:14;101327.28;;;0.13;94.32
51528;BME280;37612;51.768;21.590;2022-11-30T07:05:25;101326.30;;;0.13;94.25
51528;BME280;37612;51.768;21.590;2022-11-30T07:09:29;101330.27;;;0.20;94.07
51528;BME280;37612;51.768;21.590;2022-11-30T07:14:28;101337.29;;;0.25;94.15
51528;BME280;37612;51.768;21.590;2022-11-30T07:19:29;101329.29;;;0.21;94.20
51528;BME280;37612;51.768;21.590;2022-11-30T07:24:27;101332.98;;;0.20;94.23
51528;BME280;37612;51.768;21.590;2022-11-30T07:29:13;101332.38;;;0.23;94.12
51528;BME280;37612;51.768;21.590;2022-11-30T07:33:17;101334.81;;;0.23;94.12
51528;BME280;37612;51.768;21.590;2022-11-30T07:37:38;101335.23;;;0.22;94.38
51528;BME280;37612;51.768;21.590;2022-11-30T07:41:44;101338.46;;;0.20;94.24
51528;BME280;37612;51.768;21.590;2022-11-30T07:45:55;101338.70;;;0.24;94.35
51528;BME280;37612;51.768;21.590;2022-11-30T07:50:23;101338.16;;;0.26;94.52
51528;BME280;37612;51.768;21.590;2022-11-30T07:54:53;101339.52;;;0.25;94.35
51528;BME280;37612;51.768;21.590;2022-11-30T07:59:02;101336.77;;;0.23;94.40
51528;BME280;37612;51.768;21.590;2022-11-30T08:07:11;101328.90;;;0.14;94.37
51528;BME280;37612;51.768;21.590;2022-11-30T08:11:20;101334.14;;;0.14;94.66
51528;BME280;37612;51.768;21.590;2022-11-30T08:15:25;101330.72;;;0.16;94.65
51528;BME280;37612;51.768;21.590;2022-11-30T08:23:35;101331.16;;;0.21;94.89
51528;BME280;37612;51.768;21.590;2022-11-30T08:27:39;101335.88;;;0.23;94.82
51528;BME280;37612;51.768;21.590;2022-11-30T08:31:49;101338.92;;;0.29;94.68
51528;BME280;37612;51.768;21.590;2022-11-30T08:35:54;101337.70;;;0.33;94.71
51528;BME280;37612;51.768;21.590;2022-11-30T08:39:59;101341.89;;;0.35;94.82
51528;BME280;37612;51.768;21.590;2022-11-30T08:44:03;101339.10;;;0.35;94.83
51528;BME280;37612;51.768;21.590;2022-11-30T08:48:06;101342.86;;;0.37;94.77
51528;BME280;37612;51.768;21.590;2022-11-30T08:56:16;101340.23;;;0.37;94.76
51528;BME280;37612;51.768;21.590;2022-11-30T09:00:28;101339.55;;;0.37;94.72
51528;BME280;37612;51.768;21.590;2022-11-30T09:04:33;101340.59;;;0.37;94.93
51528;BME280;37612;51.768;21.590;2022-11-30T09:08:36;101339.33;;;0.41;94.80
51528;BME280;37612;51.768;21.590;2022-11-30T09:12:46;101338.91;;;0.44;95.04
51528;BME280;37612;51.768;21.590;2022-11-30T09:16:52;101337.26;;;0.54;95.20
51528;BME280;37612;51.768;21.590;2022-11-30T09:21:04;101335.58;;;0.60;94.94
51528;BME280;37612;51.768;21.590;2022-11-30T09:25:10;101334.06;;;0.61;95.00
51528;BME280;37612;51.768;21.590;2022-11-30T09:29:13;101331.93;;;0.61;95.15
51528;BME280;37612;51.768;21.590;2022-11-30T09:33:18;101333.64;;;0.64;95.13
51528;BME280;37612;51.768;21.590;2022-11-30T09:43:58;101337.05;;;0.75;95.06
51528;BME280;37612;51.768;21.590;2022-11-30T09:53:43;101333.16;;;0.76;95.22
51528;BME280;37612;51.768;21.590;2022-11-30T09:58:05;101332.36;;;0.78;95.11
51528;BME280;37612;51.768;21.590;2022-11-30T10:02:15;101328.27;;;0.80;95.05
51528;BME280;37612;51.768;21.590;2022-11-30T10:06:25;101329.14;;;0.82;95.22
51528;BME280;37612;51.768;21.590;2022-11-30T10:15:20;101327.34;;;0.93;95.01
51528;BME280;37612;51.768;21.590;2022-11-30T10:26:15;101326.52;;;0.95;95.17
51528;BME280;37612;51.768;21.590;2022-11-30T10:31:40;101325.45;;;0.93;95.17
51528;BME280;37612;51.768;21.590;2022-11-30T10:36:09;101326.19;;;0.99;94.89
51528;BME280;37612;51.768;21.590;2022-11-30T10:44:45;101318.95;;;0.97;94.89
51528;BME280;37612;51.768;21.590;2022-11-30T10:49:05;101318.39;;;0.99;94.71
51528;BME280;37612;51.768;21.590;2022-11-30T10:54:10;101317.55;;;0.99;94.67
51528;BME280;37612;51.768;21.590;2022-11-30T10:59:16;101318.86;;;0.96;94.89
51528;BME280;37612;51.768;21.590;2022-11-30T11:03:31;101317.14;;;0.97;94.90
51528;BME280;37612;51.768;21.590;2022-11-30T11:07:50;101312.48;;;1.01;94.95
51528;BME280;37612;51.768;21.590;2022-11-30T11:12:23;101310.86;;;1.04;94.85
51528;BME280;37612;51.768;21.590;2022-11-30T11:16:48;101306.38;;;1.06;94.84
51528;BME280;37612;51.768;21.590;2022-11-30T11:25:35;101309.79;;;1.07;94.89
51528;BME280;37612;51.768;21.590;2022-11-30T11:29:43;101315.88;;;1.06;94.76
51528;BME280;37612;51.768;21.590;2022-11-30T11:33:52;101315.47;;;1.10;94.79
51528;BME280;37612;51.768;21.590;2022-11-30T11:37:56;101308.53;;;1.11;94.68
51528;BME280;37612;51.768;21.590;2022-11-30T11:46:26;101307.25;;;1.03;94.93
51528;BME280;37612;51.768;21.590;2022-11-30T11:50:41;101309.52;;;1.05;94.73
51528;BME280;37612;51.768;21.590;2022-11-30T11:55:20;101304.61;;;1.03;94.63
51528;BME280;37612;51.768;21.590;2022-11-30T11:59:36;101303.50;;;0.99;94.42
51528;BME280;37612;51.768;21.590;2022-11-30T12:03:59;101312.42;;;0.95;94.54
51528;BME280;37612;51.768;21.590;2022-11-30T12:08:09;101316.06;;;0.96;94.48
51528;BME280;37612;51.768;21.590;2022-11-30T12:12:16;101318.60;;;0.95;94.36
51528;BME280;37612;51.768;21.590;2022-11-30T12:20:34;101320.86;;;0.97;94.50
51528;BME280;37612;51.768;21.590;2022-11-30T12:34:01;101325.65;;;1.03;94.31
51528;BME280;37612;51.768;21.590;2022-11-30T12:38:20;101319.10;;;1.07;94.41
51528;BME280;37612;51.768;21.590;2022-11-30T12:42:44;101319.15;;;1.08;94.39
51528;BME280;37612;51.768;21.590;2022-11-30T12:51:26;101321.97;;;1.08;94.60
51528;BME280;37612;51.768;21.590;2022-11-30T13:00:19;101321.20;;;1.08;94.26
51528;BME280;37612;51.768;21.590;2022-11-30T13:11:01;101322.13;;;1.06;94.34
51528;BME280;37612;51.768;21.590;2022-11-30T13:16:28;101323.10;;;1.07;94.42
51528;BME280;37612;51.768;21.590;2022-11-30T13:21:25;101326.13;;;1.07;94.26
51528;BME280;37612;51.768;21.590;2022-11-30T13:30:49;101321.02;;;1.04;94.55
51528;BME280;37612;51.768;21.590;2022-11-30T13:39:54;101318.81;;;1.03;94.32
51528;BME280;37612;51.768;21.590;2022-11-30T13:43:59;101319.41;;;0.94;94.36
51528;BME280;37612;51.768;21.590;2022-11-30T13:48:32;101317.82;;;0.92;94.45
51528;BME280;37612;51.768;21.590;2022-11-30T13:53:31;101324.10;;;0.94;94.34
51528;BME280;37612;51.768;21.590;2022-11-30T14:12:46;101335.85;;;0.96;94.41
51528;BME280;37612;51.768;21.590;2022-11-30T14:21:34;101342.41;;;0.95;94.59
51528;BME280;37612;51.768;21.590;2022-11-30T14:25:49;101340.36;;;0.91;94.31
51528;BME280;37612;51.768;21.590;2022-11-30T14:29:58;101336.33;;;0.93;94.22
51528;BME280;37612;51.768;21.590;2022-11-30T14:38:24;101342.25;;;0.99;94.38
51528;BME280;37612;51.768;21.590;2022-11-30T14:42:31;101339.73;;;0.96;94.44
51528;BME280;37612;51.768;21.590;2022-11-30T14:46:35;101343.62;;;0.94;94.49
51528;BME280;37612;51.768;21.590;2022-11-30T14:50:48;101341.23;;;0.95;94.35
51528;BME280;37612;51.768;21.590;2022-11-30T14:55:10;101333.79;;;0.96;94.36
51528;BME280;37612;51.768;21.590;2022-11-30T14:59:38;101339.94;;;0.93;94.35
51528;BME280;37612;51.768;21.590;2022-11-30T15:03:44;101346.31;;;0.93;94.45
51528;BME280;37612;51.768;21.590;2022-11-30T15:07:49;101346.71;;;0.88;94.44
51528;BME280;37612;51.768;21.590;2022-11-30T15:11:56;101345.54;;;0.88;94.42
51528;BME280;37612;51.768;21.590;2022-11-30T15:16:00;101352.06;;;0.88;94.43
51528;BME280;37612;51.768;21.590;2022-11-30T15:20:22;101356.15;;;0.89;94.40
51528;BME280;37612;51.768;21.590;2022-11-30T15:24:27;101353.33;;;0.89;94.31
51528;BME280;37612;51.768;21.590;2022-11-30T15:28:40;101354.03;;;0.86;94.31
51528;BME280;37612;51.768;21.590;2022-11-30T15:32:46;101358.57;;;0.86;94.38
51528;BME280;37612;51.768;21.590;2022-11-30T15:36:55;101357.59;;;0.88;94.40
51528;BME280;37612;51.768;21.590;2022-11-30T15:41:06;101356.10;;;0.89;94.33
51528;BME280;37612;51.768;21.590;2022-11-30T15:45:35;101350.61;;;0.85;94.45
51528;BME280;37612;51.768;21.590;2022-11-30T15:49:50;101350.52;;;0.87;94.56
51528;BME280;37612;51.768;21.590;2022-11-30T15:53:53;101353.64;;;0.93;94.45
51528;BME280;37612;51.768;21.590;2022-11-30T15:58:01;101347.20;;;0.93;94.43
51528;BME280;37612;51.768;21.590;2022-11-30T16:02:25;101351.79;;;0.89;94.49
51528;BME280;37612;51.768;21.590;2022-11-30T16:06:46;101350.89;;;0.87;94.63
51528;BME280;37612;51.768;21.590;2022-11-30T16:10:50;101349.21;;;0.83;94.39
51528;BME280;37612;51.768;21.590;2022-11-30T16:14:55;101358.98;;;0.83;94.31
51528;BME280;37612;51.768;21.590;2022-11-30T16:18:59;101359.84;;;0.89;94.29
51528;BME280;37612;51.768;21.590;2022-11-30T16:23:03;101360.20;;;0.89;94.39
51528;BME280;37612;51.768;21.590;2022-11-30T16:27:16;101363.19;;;0.88;94.63
51528;BME280;37612;51.768;21.590;2022-11-30T16:31:22;101364.05;;;0.89;94.61
51528;BME280;37612;51.768;21.590;2022-11-30T16:35:34;101361.68;;;0.86;94.68
51528;BME280;37612;51.768;21.590;2022-11-30T16:39:40;101365.52;;;0.90;94.71
51528;BME280;37612;51.768;21.590;2022-11-30T16:43:41;101368.24;;;0.93;94.33
51528;BME280;37612;51.768;21.590;2022-11-30T16:47:43;101375.13;;;0.96;94.51
51528;BME280;37612;51.768;21.590;2022-11-30T16:51:45;101372.19;;;0.97;94.72
51528;BME280;37612;51.768;21.590;2022-11-30T16:55:46;101371.15;;;0.95;94.54
51528;BME280;37612;51.768;21.590;2022-11-30T16:59:47;101373.44;;;0.93;94.70
51528;BME280;37612;51.768;21.590;2022-11-30T17:03:52;101373.52;;;0.92;94.59
51528;BME280;37612;51.768;21.590;2022-11-30T17:07:54;101368.89;;;0.93;94.50
51528;BME280;37612;51.768;21.590;2022-11-30T17:11:55;101369.22;;;0.93;94.43
51528;BME280;37612;51.768;21.590;2022-11-30T17:15:57;101371.52;;;0.91;94.50
51528;BME280;37612;51.768;21.590;2022-11-30T17:19:59;101375.19;;;0.91;94.76
51528;BME280;37612;51.768;21.590;2022-11-30T17:24:01;101375.87;;;0.89;94.84
51528;BME280;37612;51.768;21.590;2022-11-30T17:28:04;101376.73;;;0.88;94.81
51528;BME280;37612;51.768;21.590;2022-11-30T17:32:05;101377.23;;;0.92;94.71
51528;BME280;37612;51.768;21.590;2022-11-30T17:36:10;101377.02;;;0.98;94.60
51528;BME280;37612;51.768;21.590;2022-11-30T17:40:12;101376.57;;;1.01;94.65
51528;BME280;37612;51.768;21.590;2022-11-30T17:44:15;101376.13;;;1.01;94.60
51528;BME280;37612;51.768;21.590;2022-11-30T17:48:17;101379.41;;;1.00;94.59
51528;BME280;37612;51.768;21.590;2022-11-30T17:52:21;101378.32;;;1.01;94.66
51528;BME280;37612;51.768;21.590;2022-11-30T17:56:25;101382.73;;;1.02;94.57
51528;BME280;37612;51.768;21.590;2022-11-30T18:00:29;101381.48;;;1.02;94.66
51528;BME280;37612;51.768;21.590;2022-11-30T18:04:33;101380.95;;;1.00;94.80
51528;BME280;37612;51.768;21.590;2022-11-30T18:08:40;101384.71;;;0.98;94.73
51528;BME280;37612;51.768;21.590;2022-11-30T18:12:45;101388.36;;;0.98;94.90
51528;BME280;37612;51.768;21.590;2022-11-30T18:16:49;101387.48;;;1.00;95.05
51528;BME280;37612;51.768;21.590;2022-11-30T18:20:54;101383.62;;;1.00;95.12
51528;BME280;37612;51.768;21.590;2022-11-30T18:24:56;101390.47;;;0.98;95.14
51528;BME280;37612;51.768;21.590;2022-11-30T18:28:58;101389.42;;;0.96;95.26
51528;BME280;37612;51.768;21.590;2022-11-30T18:32:59;101389.98;;;1.00;95.20
51528;BME280;37612;51.768;21.590;2022-11-30T18:37:01;101392.61;;;1.01;95.27
51528;BME280;37612;51.768;21.590;2022-11-30T18:41:05;101390.22;;;0.99;95.31
51528;BME280;37612;51.768;21.590;2022-11-30T18:45:06;101390.98;;;0.97;95.69
51528;BME280;37612;51.768;21.590;2022-11-30T18:49:08;101394.19;;;0.94;95.69
51528;BME280;37612;51.768;21.590;2022-11-30T18:53:09;101394.42;;;0.96;95.78
51528;BME280;37612;51.768;21.590;2022-11-30T18:57:10;101395.90;;;0.95;95.91
51528;BME280;37612;51.768;21.590;2022-11-30T19:01:14;101393.02;;;0.94;95.94
51528;BME280;37612;51.768;21.590;2022-11-30T19:05:16;101393.83;;;0.95;96.07
51528;BME280;37612;51.768;21.590;2022-11-30T19:09:32;101395.54;;;0.95;96.12
51528;BME280;37612;51.768;21.590;2022-11-30T19:13:34;101395.48;;;0.96;96.27
51528;BME280;37612;51.768;21.590;2022-11-30T19:17:35;101393.75;;;0.94;96.23
51528;BME280;37612;51.768;21.590;2022-11-30T19:21:37;101396.04;;;0.95;96.39
51528;BME280;37612;51.768;21.590;2022-11-30T19:25:39;101399.67;;;0.99;96.42
51528;BME280;37612;51.768;21.590;2022-11-30T19:29:40;101394.66;;;1.00;96.38
51528;BME280;37612;51.768;21.590;2022-11-30T19:33:43;101392.84;;;0.97;96.37
51528;BME280;37612;51.768;21.590;2022-11-30T19:37:44;101398.71;;;0.97;96.64
51528;BME280;37612;51.768;21.590;2022-11-30T19:41:45;101398.30;;;0.99;96.61
51528;BME280;37612;51.768;21.590;2022-11-30T19:45:48;101405.24;;;1.01;96.72
51528;BME280;37612;51.768;21.590;2022-11-30T19:49:49;101400.82;;;0.98;96.77
51528;BME280;37612;51.768;21.590;2022-11-30T19:53:50;101407.83;;;1.00;96.71
51528;BME280;37612;51.768;21.590;2022-11-30T19:57:55;101410.27;;;1.00;96.80
51528;BME280;37612;51.768;21.590;2022-11-30T20:01:56;101413.50;;;0.98;96.87
51528;BME280;37612;51.768;21.590;2022-11-30T20:05:57;101417.30;;;0.95;96.98
51528;BME280;37612;51.768;21.590;2022-11-30T20:09:58;101420.07;;;0.97;96.92
51528;BME280;37612;51.768;21.590;2022-11-30T20:14:00;101418.67;;;0.99;96.89
51528;BME280;37612;51.768;21.590;2022-11-30T20:18:01;101422.90;;;0.98;97.20
51528;BME280;37612;51.768;21.590;2022-11-30T20:22:02;101421.65;;;0.97;97.24
51528;BME280;37612;51.768;21.590;2022-11-30T20:26:16;101422.83;;;0.97;97.31
51528;BME280;37612;51.768;21.590;2022-11-30T20:30:18;101424.84;;;1.00;97.24
51528;BME280;37612;51.768;21.590;2022-11-30T20:34:19;101419.34;;;0.99;97.26
51528;BME280;37612;51.768;21.590;2022-11-30T20:38:21;101414.95;;;0.97;97.45
51528;BME280;37612;51.768;21.590;2022-11-30T20:42:22;101416.32;;;0.96;97.41
51528;BME280;37612;51.768;21.590;2022-11-30T20:46:28;101418.89;;;0.98;97.23
51528;BME280;37612;51.768;21.590;2022-11-30T20:50:30;101425.85;;;0.97;97.22
51528;BME280;37612;51.768;21.590;2022-11-30T20:54:31;101438.27;;;0.94;97.39
51528;BME280;37612;51.768;21.590;2022-11-30T20:58:32;101435.45;;;0.92;97.45
51528;BME280;37612;51.768;21.590;2022-11-30T21:02:33;101431.20;;;0.94;97.25
51528;BME280;37612;51.768;21.590;2022-11-30T21:06:35;101429.89;;;0.95;97.48
51528;BME280;37612;51.768;21.590;2022-11-30T21:10:39;101429.35;;;0.95;97.57
51528;BME280;37612;51.768;21.590;2022-11-30T21:14:41;101438.02;;;0.94;97.82
51528;BME280;37612;51.768;21.590;2022-11-30T21:18:44;101436.16;;;0.95;97.64
51528;BME280;37612;51.768;21.590;2022-11-30T21:22:46;101434.96;;;0.97;97.78
51528;BME280;37612;51.768;21.590;2022-11-30T21:26:47;101434.23;;;0.97;97.79
51528;BME280;37612;51.768;21.590;2022-11-30T21:30:48;101437.33;;;0.94;97.88
51528;BME280;37612;51.768;21.590;2022-11-30T21:34:50;101439.31;;;0.95;97.79
51528;BME280;37612;51.768;21.590;2022-11-30T21:38:56;101442.30;;;0.99;97.89
51528;BME280;37612;51.768;21.590;2022-11-30T21:42:58;101440.89;;;0.99;98.03
51528;BME280;37612;51.768;21.590;2022-11-30T21:46:59;101439.17;;;0.97;97.77
51528;BME280;37612;51.768;21.590;2022-11-30T21:51:05;101431.77;;;0.99;97.93
51528;BME280;37612;51.768;21.590;2022-11-30T21:55:08;101432.36;;;1.00;97.84
51528;BME280;37612;51.768;21.590;2022-11-30T21:59:12;101435.10;;;0.97;97.84
51528;BME280;37612;51.768;21.590;2022-11-30T22:03:13;101434.95;;;0.93;98.10
51528;BME280;37612;51.768;21.590;2022-11-30T22:07:14;101435.89;;;0.95;97.93
51528;BME280;37612;51.768;21.590;2022-11-30T22:11:20;101435.05;;;0.96;97.89
51528;BME280;37612;51.768;21.590;2022-11-30T22:15:22;101432.79;;;0.94;98.07
51528;BME280;37612;51.768;21.590;2022-11-30T22:19:23;101433.89;;;0.90;98.03
51528;BME280;37612;51.768;21.590;2022-11-30T22:23:24;101435.25;;;0.88;98.09
51528;BME280;37612;51.768;21.590;2022-11-30T22:27:25;101430.67;;;0.90;98.21
51528;BME280;37612;51.768;21.590;2022-11-30T22:31:29;101428.59;;;0.92;98.12
51528;BME280;37612;51.768;21.590;2022-11-30T22:35:31;101422.36;;;0.91;98.20
51528;BME280;37612;51.768;21.590;2022-11-30T22:39:33;101420.54;;;0.86;98.20
51528;BME280;37612;51.768;21.590;2022-11-30T22:43:34;101425.09;;;0.85;98.29
51528;BME280;37612;51.768;21.590;2022-11-30T22:47:36;101428.12;;;0.84;98.30
51528;BME280;37612;51.768;21.590;2022-11-30T22:51:37;101423.17;;;0.86;98.49
51528;BME280;37612;51.768;21.590;2022-11-30T22:55:41;101423.03;;;0.89;98.41
51528;BME280;37612;51.768;21.590;2022-11-30T22:59:42;101422.27;;;0.88;98.50
51528;BME280;37612;51.768;21.590;2022-11-30T23:03:44;101422.28;;;0.90;98.55
51528;BME280;37612;51.768;21.590;2022-11-30T23:07:46;101423.81;;;0.93;98.36
51528;BME280;37612;51.768;21.590;2022-11-30T23:11:48;101422.05;;;0.91;98.31
51528;BME280;37612;51.768;21.590;2022-11-30T23:15:49;101421.08;;;0.86;98.60
51528;BME280;37612;51.768;21.590;2022-11-30T23:19:50;101420.37;;;0.88;98.60
51528;BME280;37612;51.768;21.590;2022-11-30T23:23:53;101419.14;;;0.90;98.25
51528;BME280;37612;51.768;21.590;2022-11-30T23:27:55;101414.84;;;0.89;98.50
51528;BME280;37612;51.768;21.590;2022-11-30T23:31:56;101410.75;;;0.83;98.48
51528;BME280;37612;51.768;21.590;2022-11-30T23:35:57;101408.85;;;0.82;98.50
51528;BME280;37612;51.768;21.590;2022-11-30T23:39:58;101405.48;;;0.84;98.45
51528;BME280;37612;51.768;21.590;2022-11-30T23:44:00;101403.13;;;0.82;98.51
51528;BME280;37612;51.768;21.590;2022-11-30T23:48:01;101405.11;;;0.76;98.43